Home > Products > Valid Products > TAF

000
FTUS43 KIND 230500
TAFIND
TAF
KIND 230532Z 2306/2412 10004KT P6SM SKC
     FM231000 13002KT 5SM BR SKC
     FM231300 18005KT P6SM SCT250
     FM231900 22007KT P6SM BKN200
     FM240700 19005KT P6SM OVC080=



000
FTUS43 KIND 230500
TAFLAF
TAF
KLAF 230532Z 2306/2406 VRB03KT P6SM SKC
     FM231000 00000KT 2SM BR MIFG SKC
     FM231400 19005KT P6SM SCT250
     FM231800 21006KT P6SM BKN200
     FM240400 21003KT P6SM OVC080
      AMD LTD TO CLD VIS AND WIND TIL 231300=



000
FTUS43 KIND 230200 AAA
TAFIND
TAF AMD
KIND 230226Z 2302/2406 10004KT P6SM SKC
     FM231000 13002KT 5SM BR SKC
     FM231300 18005KT P6SM SCT250
     FM231900 22007KT P6SM BKN200=



000
FTUS43 KIND 222300
TAFLAF
TAF
KLAF 222320Z 2300/2324 VRB03KT P6SM SKC
     FM231000 00000KT 2SM BR MIFG SKC
     FM231400 19005KT P6SM SCT250
     FM231800 23007KT P6SM BKN200
      AMD LTD TO CLD VIS AND WIND 2301/2313=



000
FTUS43 KIND 222300
TAFIND
TAF
KIND 222320Z 2300/2406 08004KT P6SM SKC
     FM231000 13002KT 5SM BR SKC
     FM231300 18005KT P6SM SCT250
     FM231900 22007KT P6SM BKN200=



000
FTUS43 KIND 222000 AAA
TAFIND
TAF AMD
KIND 222011Z 2220/2324 08004KT P6SM SKC
     FM231000 13002KT 5SM BR SKC
     FM231300 17005KT P6SM SCT250=



000
FTUS43 KIND 221700
TAFLAF
TAF
KLAF 221720Z 2218/2318 07005KT P6SM SKC
     FM222300 VRB03KT P6SM SKC
     FM230900 00000KT 3SM BR SKC
     FM231400 19005KT P6SM SCT250=



000
FTUS43 KIND 221700
TAFIND
TAF
KIND 221720Z 2218/2324 04006KT P6SM FEW030
     FM222300 09004KT P6SM SKC
     FM231300 17005KT P6SM SCT250=



000
FTUS43 KIND 221700
TAFLAF
TAF
KLAF 221720Z 2218/2318 07005KT P6SM SKC
     FM222300 VRB03KT P6SM SKC
     FM230900 00000KT 3SM BR SKC
     FM231400 19005KT P6SM SCT250=



000
FTUS43 KIND 221700
TAFIND
TAF
KIND 221720Z 2218/2324 04006KT P6SM FEW030
     FM222300 09004KT P6SM SKC
     FM231300 17005KT P6SM SCT250=



000
FTUS43 KIND 221400 AAA
TAFIND
TAF AMD
KIND 221411Z 2214/2318 04007KT P6SM SCT030
     FM221900 05006KT P6SM FEW035
     FM222300 08004KT P6SM SKC=



000
FTUS43 KIND 221100
TAFLAF
TAF
KLAF 221135Z 2212/2312 05004KT P6SM SKC
     FM221600 04006KT P6SM FEW030
     FM222300 VRB03KT P6SM SKC
      AMD LTD TO CLD VIS AND WIND TIL 221300=



000
FTUS43 KIND 221100
TAFIND
TAF
KIND 221135Z 2212/2318 02006KT P6SM SKC
     FM221600 04006KT P6SM FEW030
     FM222300 06004KT P6SM SKC=



000
FTUS43 KIND 220800 AAA
TAFIND
TAF AMD
KIND 220816Z 2208/2312 36006KT P6SM SKC
     FM221600 02006KT P6SM SKC
     FM222300 03004KT P6SM SKC=



000
FTUS43 KIND 220500
TAFLAF
TAF
KLAF 220520Z 2206/2306 03005KT P6SM SKC
     FM221600 05005KT P6SM SKC
     FM222300 VRB03KT P6SM SKC
      AMD LTD TO CLD VIS AND WIND TIL 221300=



000
FTUS43 KIND 220500
TAFLAF
TAF
KLAF 220520Z 2206/2306 03005KT P6SM SKC
     FM221600 05005KT P6SM SKC
     FM222300 VRB03KT P6SM SKC
      AMD LTD TO CLD VIS AND WIND TIL 221300=



000
FTUS43 KIND 220500
TAFIND
TAF
KIND 220520Z 2206/2312 05010KT P6SM FEW040
     FM221600 02006KT P6SM SKC
     FM222300 03004KT P6SM SKC=



000
FTUS43 KIND 220500
TAFIND
TAF
KIND 220520Z 2206/2312 05010KT P6SM FEW040
     FM221600 02006KT P6SM SKC
     FM222300 03004KT P6SM SKC=



000
FTUS43 KIND 220200 AAA
TAFIND
TAF AMD
KIND 220214Z 2202/2306 02006KT P6SM BKN040
     FM220400 02006KT P6SM SKC
     FM221600 02006KT P6SM SKC
     FM222300 03004KT P6SM SKC=



000
FTUS43 KIND 220200 AAA
TAFIND
TAF AMD
KIND 220214Z 2202/2306 02006KT P6SM BKN040
     FM220400 02006KT P6SM SKC
     FM221600 02006KT P6SM SKC
     FM222300 03004KT P6SM SKC=



000
FTUS43 KIND 212300
TAFIND
TAF
KIND 212320Z 2200/2306 02006KT P6SM BKN050
     FM220400 02006KT P6SM SKC
     FM221600 02006KT P6SM SKC
     FM222300 03004KT P6SM SKC=



000
FTUS43 KIND 212300
TAFLAF
TAF
KLAF 212320Z 2200/2224 03004KT P6SM BKN040
     FM220400 VRB03KT P6SM SKC
     FM221600 05005KT P6SM SKC
     FM222300 VRB03KT P6SM SKC
      AMD LTD TO CLD VIS AND WIND 2201/2213=



000
FTUS43 KIND 212300
TAFLAF
TAF
KLAF 212320Z 2200/2224 03004KT P6SM BKN040
     FM220400 VRB03KT P6SM SKC
     FM221600 05005KT P6SM SKC
     FM222300 VRB03KT P6SM SKC
      AMD LTD TO CLD VIS AND WIND 2201/2213=



000
FTUS43 KIND 212300
TAFIND
TAF
KIND 212320Z 2200/2306 02006KT P6SM BKN050
     FM220400 02006KT P6SM SKC
     FM221600 02006KT P6SM SKC
     FM222300 03004KT P6SM SKC=



000
FTUS43 KIND 212000 AAB
TAFIND
TAF AMD
KIND 212024Z 2120/2224 34011KT P6SM BKN040
     FM212300 02007KT P6SM BKN040
     FM220400 03006KT P6SM SKC
     FM221600 03006KT P6SM SCT040=



000
FTUS43 KIND 211800 AAA
TAFIND
TAF AMD
KIND 211848Z 2119/2224 34010KT P6SM BKN040
     FM212300 02007KT P6SM BKN040
     FM220400 03006KT P6SM SKC
     FM221600 03006KT P6SM SCT040=



000
FTUS43 KIND 211700
TAFIND
TAF
KIND 211720Z 2118/2224 34011KT P6SM VCSH BKN025
     FM212000 34011KT P6SM BKN040
     FM212300 02007KT P6SM BKN040
     FM220400 03006KT P6SM SKC
     FM221600 03006KT P6SM SCT040=



000
FTUS43 KIND 211700
TAFLAF
TAF
KLAF 211720Z 2118/2218 35010G18KT P6SM VCSH SCT025 BKN040
     FM212200 02006KT P6SM SCT035
     FM220400 05004KT P6SM SKC
     FM221600 05006KT P6SM SCT040=



000
FTUS43 KIND 211600 AAB
TAFLAF
TAF AMD
KLAF 211624Z 2116/2212 35010G18KT P6SM VCSH SCT025 BKN040
     FM212200 02008KT P6SM SCT035
     FM220200 05004KT P6SM SKC=



000
FTUS43 KIND 211600 AAA
TAFIND
TAF AMD
KIND 211623Z 2116/2218 33011KT P6SM VCSH BKN025
     FM211900 34012KT P6SM BKN040
     FM212300 02008KT P6SM SCT040
     FM220200 04007KT P6SM SKC=



000
FTUS43 KIND 211400 AAA
TAFIND
TAF AMD
KIND 211405Z 2114/2218 33011KT P6SM VCSH SCT025 BKN035
     FM211900 34012KT P6SM BKN040
     FM212300 02008KT P6SM SCT040
     FM220200 04007KT P6SM SKC=



000
FTUS43 KIND 211400 AAA
TAFLAF
TAF AMD
KLAF 211404Z 2114/2212 35010KT P6SM VCSH BKN025
     FM211800 36012KT P6SM SCT025 BKN035
     FM212200 02008KT P6SM SCT035
     FM220200 05004KT P6SM SKC=



000
FTUS43 KIND 211100
TAFIND
TAF
KIND 211125Z 2112/2218 32009KT P6SM BKN050
     FM211500 33013KT P6SM BKN035
     FM212300 02008KT P6SM SCT035
     FM220200 04007KT P6SM SKC=



000
FTUS43 KIND 211100
TAFLAF
TAF
KLAF 211125Z 2112/2212 33007KT P6SM BKN050
     FM211500 36012KT P6SM SCT025 BKN035
     FM212200 02008KT P6SM SCT035
     FM220200 05004KT P6SM SKC
      AMD LTD TO CLD VIS AND WIND TIL 211300=



000
FTUS43 KIND 211100
TAFLAF
TAF
KLAF 211125Z 2112/2212 33007KT P6SM BKN050
     FM211500 36012KT P6SM SCT025 BKN035
     FM212200 02008KT P6SM SCT035
     FM220200 05004KT P6SM SKC
      AMD LTD TO CLD VIS AND WIND TIL 211300=



000
FTUS43 KIND 211100
TAFIND
TAF
KIND 211125Z 2112/2218 32009KT P6SM BKN050
     FM211500 33013KT P6SM BKN035
     FM212300 02008KT P6SM SCT035
     FM220200 04007KT P6SM SKC=



000
FTUS43 KIND 210800 AAB
TAFLAF
TAF AMD
KLAF 210820Z 2108/2206 32004KT 6SM BR SCT050
     FM211500 35009KT P6SM BKN035
     FM212000 02006KT P6SM SCT035
     FM220200 03004KT P6SM SKC
      AMD LTD TO CLD VIS AND WIND TIL 211300=



000
FTUS43 KIND 210800 AAA
TAFIND
TAF AMD
KIND 210819Z 2108/2212 33009KT P6SM BKN060
     FM211500 33011KT P6SM BKN035
     FM212100 01006KT P6SM SCT035
     FM220200 02006KT P6SM SKC=



000
FTUS43 KIND 210700 AAA
TAFLAF
TAF AMD
KLAF 210711Z 2107/2206 31005KT 6SM BR BKN070
      TEMPO 2108/2110 4SM BR
     FM211000 33004KT 6SM BR OVC025
     FM211500 35009KT P6SM BKN035
     FM212000 02006KT P6SM SCT035
     FM220200 03004KT P6SM SKC
      AMD LTD TO CLD VIS AND WIND TIL 211300=



000
FTUS43 KIND 210500
TAFIND
TAF
KIND 210525Z 2106/2212 35011KT P6SM BKN070
     FM210830 34010KT P6SM OVC025
     FM211500 33011KT P6SM BKN035
     FM212100 01006KT P6SM SCT035
     FM220200 02006KT P6SM SKC=



000
FTUS43 KIND 210500
TAFLAF
TAF
KLAF 210525Z 2106/2206 36004KT P6SM BKN070
     FM210700 35004KT P6SM OVC025
     FM211500 35009KT P6SM BKN035
     FM212000 02006KT P6SM SCT035
     FM220200 03004KT P6SM SKC
      AMD LTD TO CLD VIS AND WIND TIL 211300=



000
FTUS43 KIND 210200 AAA
TAFIND
TAF AMD
KIND 210220Z 2102/2206 31006KT P6SM SCT060
     FM210600 33005KT P6SM BKN040
     FM211500 33011KT P6SM BKN035
     FM212300 01006KT P6SM SCT035=



000
FTUS43 KIND 210200 AAA
TAFIND
TAF AMD
KIND 210220Z 2102/2206 31006KT P6SM SCT060
     FM210600 33005KT P6SM BKN040
     FM211500 33011KT P6SM BKN035
     FM212300 01006KT P6SM SCT035=



000
FTUS43 KIND 202300
TAFLAF
TAF
KLAF 202325Z 2100/2124 30007KT P6SM SKC
     FM210300 33004KT P6SM SCT035
     FM210700 33004KT 4SM BR OVC025
     FM211500 35009KT P6SM BKN035
     FM212300 03006KT P6SM SCT035
      AMD LTD TO CLD VIS AND WIND 2101/2113=



000
FTUS43 KIND 202300
TAFIND
TAF
KIND 202325Z 2100/2206 31006KT P6SM SKC
     FM210400 33005KT 4SM BR OVC025
     FM211500 33011KT P6SM BKN035
     FM212300 01006KT P6SM SCT035=



000
FTUS43 KIND 202000 AAC
TAFIND
TAF AMD
KIND 202020Z 2020/2124 26012KT P6SM SCT035
     FM202200 28008G18KT P6SM SCT035
     FM210000 31006KT P6SM SKC
     FM210900 33005KT 4SM BR OVC025
     FM211500 33011KT P6SM OVC030=



000
FTUS43 KIND 201800 AAB
TAFIND
TAF AMD
KIND 201817Z 2018/2124 25012G18KT P6SM BKN035
     FM202200 28008KT P6SM BKN035
     FM210300 31006KT P6SM SCT035
     FM210900 33005KT 4SM BR OVC025
     FM211500 33011KT P6SM OVC030=



000
FTUS43 KIND 201800 AAA
TAFIND
TAF AMD
KIND 201813Z 2018/2124 25012G18KT P6SM VCSH BKN035
     FM202200 28008KT P6SM BKN035
     FM210300 31006KT P6SM SCT035
     FM210900 33005KT 4SM BR OVC025
     FM211500 33011KT P6SM OVC030=



000
FTUS43 KIND 201700
TAFIND
TAF
KIND 201720Z 2018/2124 25012G18KT P6SM VCSH BKN035
      TEMPO 2018/2020 BKN025
     FM202200 28008KT P6SM BKN035
     FM210300 31006KT P6SM SCT035
     FM210900 33005KT 4SM BR OVC025
     FM211500 33011KT P6SM OVC030=



000
FTUS43 KIND 201700
TAFLAF
TAF
KLAF 201720Z 2018/2118 25010G18KT P6SM SCT035
     FM202100 29007KT P6SM BKN035
     FM210200 33004KT P6SM SCT035
     FM210700 33004KT 4SM BR OVC025
     FM211500 35009KT P6SM OVC030=



000
FTUS43 KIND 201600 AAB
TAFIND
TAF AMD
KIND 201627Z 2016/2118 21010G18KT 5SM SHRA VCTS OVC025CB
     FM201800 21010G18KT P6SM VCSH BKN035
     FM202200 29008KT P6SM BKN035
     FM210300 31006KT P6SM SCT035
     FM210900 33004KT 4SM BR BKN025=



000
FTUS43 KIND 201600 AAA
TAFIND
TAF AMD
KIND 201625Z 2016/2118 21010G18KT P6SM VCSH BKN035
      TEMPO 2016/2018 SHRA OVC025
     FM202200 29008KT P6SM BKN035
     FM210300 31006KT P6SM SCT035
     FM210900 33004KT 4SM BR BKN025=



000
FTUS43 KIND 201400 AAA
TAFIND
TAF AMD
KIND 201429Z 2014/2118 21010G18KT P6SM VCSH BKN035
     FM202200 29008KT P6SM BKN035
     FM210300 31006KT P6SM SCT035
     FM210900 33004KT 4SM BR BKN025=



000
FTUS43 KIND 201400 AAB
TAFLAF
TAF AMD
KLAF 201411Z 2014/2112 23010G18KT P6SM VCSH BKN035
     FM202100 29007KT P6SM BKN035
     FM210200 33004KT P6SM SCT035
     FM210700 33004KT 4SM BR BKN025=



000
FTUS43 KIND 201400 AAA
TAFLAF
TAF AMD
KLAF 201410Z 2014/2112 23010KT P6SM VCSH BKN035
     FM202100 29007KT P6SM BKN035
     FM210200 33004KT P6SM SCT035
     FM210700 33004KT 4SM BR BKN025=



000
FTUS43 KIND 201100
TAFIND
TAF
KIND 201120Z 2012/2118 20008KT P6SM VCSH BKN080
     FM201400 21012KT P6SM VCSH BKN035
     FM202200 29008KT P6SM BKN035
     FM210300 31006KT P6SM SCT035
     FM210900 33004KT 4SM BR BKN025=



000
FTUS43 KIND 201100
TAFLAF
TAF
KLAF 201120Z 2012/2112 22006KT P6SM VCSH OVC070
     FM201400 26010G18KT P6SM VCSH BKN035
     FM202100 29007KT P6SM BKN035
     FM210200 33004KT P6SM SCT035
     FM210700 33004KT 4SM BR BKN025
      AMD LTD TO CLD VIS AND WIND TIL 201300=



000
FTUS43 KIND 200800 AAA
TAFIND
TAF AMD
KIND 200819Z 2008/2112 19007KT P6SM SCT110 OVC160
     FM201300 21012KT P6SM VCSH BKN035
     FM202200 29008KT P6SM BKN035
     FM210300 31006KT P6SM SCT035=



    US Dept of Commerce
    National Oceanic and Atmospheric Administration
    National Weather Service
    1325 East West Highway
    Silver Spring, MD 20910
    Page Author: NWS Internet Services Team
Disclaimer
Information Quality
Credits
Glossary
Privacy Policy
Freedom of Information Act (FOIA)
About Us
Career Opportunities